sensor_id;sensor_type;location;lat;lon;timestamp;P1;durP1;ratioP1;P2;durP2;ratioP2
10432;SDS011;5263;48.680;9.004;2023-05-14T00:00:49;9.43;;;8.47;;
10432;SDS011;5263;48.680;9.004;2023-05-14T00:03:14;9.60;;;8.80;;
10432;SDS011;5263;48.680;9.004;2023-05-14T00:05:40;10.23;;;9.43;;
10432;SDS011;5263;48.680;9.004;2023-05-14T00:08:06;9.77;;;8.97;;
10432;SDS011;5263;48.680;9.004;2023-05-14T00:10:31;9.13;;;8.23;;
10432;SDS011;5263;48.680;9.004;2023-05-14T00:12:57;9.33;;;8.53;;
10432;SDS011;5263;48.680;9.004;2023-05-14T00:15:23;9.50;;;8.70;;
10432;SDS011;5263;48.680;9.004;2023-05-14T00:17:48;9.80;;;8.87;;
10432;SDS011;5263;48.680;9.004;2023-05-14T00:20:14;9.60;;;8.90;;
10432;SDS011;5263;48.680;9.004;2023-05-14T00:22:40;8.33;;;7.67;;
10432;SDS011;5263;48.680;9.004;2023-05-14T00:25:06;9.43;;;8.23;;
10432;SDS011;5263;48.680;9.004;2023-05-14T00:27:33;9.80;;;9.00;;
10432;SDS011;5263;48.680;9.004;2023-05-14T00:29:59;9.40;;;8.60;;
10432;SDS011;5263;48.680;9.004;2023-05-14T00:32:25;10.27;;;9.27;;
10432;SDS011;5263;48.680;9.004;2023-05-14T00:34:50;10.50;;;9.63;;
10432;SDS011;5263;48.680;9.004;2023-05-14T00:37:16;10.50;;;9.60;;
10432;SDS011;5263;48.680;9.004;2023-05-14T00:39:41;9.17;;;8.47;;
10432;SDS011;5263;48.680;9.004;2023-05-14T00:42:07;10.03;;;9.10;;
10432;SDS011;5263;48.680;9.004;2023-05-14T00:44:33;9.60;;;8.70;;
10432;SDS011;5263;48.680;9.004;2023-05-14T00:46:59;9.33;;;8.53;;
10432;SDS011;5263;48.680;9.004;2023-05-14T00:49:25;9.00;;;8.37;;
10432;SDS011;5263;48.680;9.004;2023-05-14T00:51:51;9.33;;;8.10;;
10432;SDS011;5263;48.680;9.004;2023-05-14T00:54:17;8.93;;;8.13;;
10432;SDS011;5263;48.680;9.004;2023-05-14T00:56:44;9.47;;;8.77;;
10432;SDS011;5263;48.680;9.004;2023-05-14T00:59:11;9.80;;;9.00;;
10432;SDS011;5263;48.680;9.004;2023-05-14T01:01:37;10.23;;;9.43;;
10432;SDS011;5263;48.680;9.004;2023-05-14T01:04:03;12.80;;;10.20;;
10432;SDS011;5263;48.680;9.004;2023-05-14T01:09:36;10.30;;;9.50;;
10432;SDS011;5263;48.680;9.004;2023-05-14T01:12:08;13.37;;;12.03;;
10432;SDS011;5263;48.680;9.004;2023-05-14T01:17:31;14.07;;;12.73;;
10432;SDS011;5263;48.680;9.004;2023-05-14T01:19:57;12.87;;;11.73;;
10432;SDS011;5263;48.680;9.004;2023-05-14T01:22:24;12.77;;;11.63;;
10432;SDS011;5263;48.680;9.004;2023-05-14T01:24:50;14.53;;;12.20;;
10432;SDS011;5263;48.680;9.004;2023-05-14T01:29:55;13.70;;;12.47;;
10432;SDS011;5263;48.680;9.004;2023-05-14T01:32:27;13.67;;;12.47;;
10432;SDS011;5263;48.680;9.004;2023-05-14T01:34:54;12.40;;;11.30;;
10432;SDS011;5263;48.680;9.004;2023-05-14T01:37:22;13.30;;;12.10;;
10432;SDS011;5263;48.680;9.004;2023-05-14T01:39:49;11.97;;;10.90;;
10432;SDS011;5263;48.680;9.004;2023-05-14T01:42:16;12.10;;;10.97;;
10432;SDS011;5263;48.680;9.004;2023-05-14T01:44:42;12.57;;;11.37;;
10432;SDS011;5263;48.680;9.004;2023-05-14T01:47:08;10.00;;;9.20;;
10432;SDS011;5263;48.680;9.004;2023-05-14T01:49:33;10.67;;;9.87;;
10432;SDS011;5263;48.680;9.004;2023-05-14T01:52:01;11.47;;;10.40;;
10432;SDS011;5263;48.680;9.004;2023-05-14T01:54:26;10.90;;;10.00;;
10432;SDS011;5263;48.680;9.004;2023-05-14T01:56:52;9.90;;;9.10;;
10432;SDS011;5263;48.680;9.004;2023-05-14T01:59:18;10.77;;;9.67;;
10432;SDS011;5263;48.680;9.004;2023-05-14T02:01:43;10.63;;;9.63;;
10432;SDS011;5263;48.680;9.004;2023-05-14T02:04:09;10.77;;;9.87;;
10432;SDS011;5263;48.680;9.004;2023-05-14T02:06:34;10.33;;;9.30;;
10432;SDS011;5263;48.680;9.004;2023-05-14T02:09:00;10.20;;;9.40;;
10432;SDS011;5263;48.680;9.004;2023-05-14T02:11:26;11.00;;;10.10;;
10432;SDS011;5263;48.680;9.004;2023-05-14T02:13:52;11.30;;;10.23;;
10432;SDS011;5263;48.680;9.004;2023-05-14T02:16:18;10.70;;;9.70;;
10432;SDS011;5263;48.680;9.004;2023-05-14T02:18:43;10.47;;;9.57;;
10432;SDS011;5263;48.680;9.004;2023-05-14T02:21:09;11.77;;;10.57;;
10432;SDS011;5263;48.680;9.004;2023-05-14T02:23:34;11.37;;;10.30;;
10432;SDS011;5263;48.680;9.004;2023-05-14T02:26:00;11.00;;;10.07;;
10432;SDS011;5263;48.680;9.004;2023-05-14T02:28:26;11.23;;;10.23;;
10432;SDS011;5263;48.680;9.004;2023-05-14T02:30:51;12.00;;;10.90;;
10432;SDS011;5263;48.680;9.004;2023-05-14T02:33:22;10.97;;;9.93;;
10432;SDS011;5263;48.680;9.004;2023-05-14T02:35:48;13.00;;;11.80;;
10432;SDS011;5263;48.680;9.004;2023-05-14T02:38:14;11.97;;;10.87;;
10432;SDS011;5263;48.680;9.004;2023-05-14T02:40:40;13.10;;;12.00;;
10432;SDS011;5263;48.680;9.004;2023-05-14T02:43:05;14.17;;;12.70;;
10432;SDS011;5263;48.680;9.004;2023-05-14T02:45:31;13.33;;;12.17;;
10432;SDS011;5263;48.680;9.004;2023-05-14T02:47:56;16.93;;;15.30;;
10432;SDS011;5263;48.680;9.004;2023-05-14T02:50:22;14.57;;;13.17;;
10432;SDS011;5263;48.680;9.004;2023-05-14T02:52:47;16.43;;;14.83;;
10432;SDS011;5263;48.680;9.004;2023-05-14T02:55:13;16.43;;;14.70;;
10432;SDS011;5263;48.680;9.004;2023-05-14T02:57:38;17.50;;;15.70;;
10432;SDS011;5263;48.680;9.004;2023-05-14T03:00:04;16.00;;;14.50;;
10432;SDS011;5263;48.680;9.004;2023-05-14T03:02:30;16.53;;;15.07;;
10432;SDS011;5263;48.680;9.004;2023-05-14T03:04:56;18.47;;;16.73;;
10432;SDS011;5263;48.680;9.004;2023-05-14T03:07:21;16.23;;;14.63;;
10432;SDS011;5263;48.680;9.004;2023-05-14T03:09:47;15.40;;;14.10;;
10432;SDS011;5263;48.680;9.004;2023-05-14T03:12:13;16.40;;;14.90;;
10432;SDS011;5263;48.680;9.004;2023-05-14T03:14:38;15.80;;;14.20;;
10432;SDS011;5263;48.680;9.004;2023-05-14T03:17:04;17.67;;;15.97;;
10432;SDS011;5263;48.680;9.004;2023-05-14T03:19:30;14.23;;;13.03;;
10432;SDS011;5263;48.680;9.004;2023-05-14T03:21:55;14.40;;;13.10;;
10432;SDS011;5263;48.680;9.004;2023-05-14T03:24:21;13.83;;;12.63;;
10432;SDS011;5263;48.680;9.004;2023-05-14T03:26:46;13.63;;;12.43;;
10432;SDS011;5263;48.680;9.004;2023-05-14T03:29:12;13.07;;;11.40;;
10432;SDS011;5263;48.680;9.004;2023-05-14T03:31:41;12.10;;;10.93;;
10432;SDS011;5263;48.680;9.004;2023-05-14T03:34:07;12.27;;;11.13;;
10432;SDS011;5263;48.680;9.004;2023-05-14T03:36:33;11.23;;;10.33;;
10432;SDS011;5263;48.680;9.004;2023-05-14T03:39:00;13.50;;;12.30;;
10432;SDS011;5263;48.680;9.004;2023-05-14T03:41:26;11.83;;;10.80;;
10432;SDS011;5263;48.680;9.004;2023-05-14T03:43:52;11.77;;;10.87;;
10432;SDS011;5263;48.680;9.004;2023-05-14T03:46:17;11.60;;;10.60;;
10432;SDS011;5263;48.680;9.004;2023-05-14T03:48:43;12.13;;;11.13;;
10432;SDS011;5263;48.680;9.004;2023-05-14T03:51:09;11.70;;;10.63;;
10432;SDS011;5263;48.680;9.004;2023-05-14T03:53:34;12.47;;;11.27;;
10432;SDS011;5263;48.680;9.004;2023-05-14T03:56:00;12.87;;;11.37;;
10432;SDS011;5263;48.680;9.004;2023-05-14T03:58:26;13.23;;;12.03;;
10432;SDS011;5263;48.680;9.004;2023-05-14T04:00:51;13.27;;;12.07;;
10432;SDS011;5263;48.680;9.004;2023-05-14T04:03:17;13.37;;;12.07;;
10432;SDS011;5263;48.680;9.004;2023-05-14T04:05:43;13.67;;;12.40;;
10432;SDS011;5263;48.680;9.004;2023-05-14T04:08:08;13.07;;;11.50;;
10432;SDS011;5263;48.680;9.004;2023-05-14T04:10:34;13.83;;;12.63;;
10432;SDS011;5263;48.680;9.004;2023-05-14T04:13:00;13.90;;;12.50;;
10432;SDS011;5263;48.680;9.004;2023-05-14T04:15:25;13.47;;;12.37;;
10432;SDS011;5263;48.680;9.004;2023-05-14T04:17:51;14.50;;;13.00;;
10432;SDS011;5263;48.680;9.004;2023-05-14T04:20:17;12.27;;;11.07;;
10432;SDS011;5263;48.680;9.004;2023-05-14T04:22:42;12.83;;;11.57;;
10432;SDS011;5263;48.680;9.004;2023-05-14T04:25:08;12.10;;;11.00;;
10432;SDS011;5263;48.680;9.004;2023-05-14T04:27:34;13.03;;;11.70;;
10432;SDS011;5263;48.680;9.004;2023-05-14T04:29:59;10.80;;;9.90;;
10432;SDS011;5263;48.680;9.004;2023-05-14T04:32:25;11.43;;;10.30;;
10432;SDS011;5263;48.680;9.004;2023-05-14T04:34:51;11.53;;;10.43;;
10432;SDS011;5263;48.680;9.004;2023-05-14T04:37:16;10.57;;;9.77;;
10432;SDS011;5263;48.680;9.004;2023-05-14T04:39:42;10.33;;;9.53;;
10432;SDS011;5263;48.680;9.004;2023-05-14T04:42:07;10.77;;;9.97;;
10432;SDS011;5263;48.680;9.004;2023-05-14T04:44:34;11.37;;;10.37;;
10432;SDS011;5263;48.680;9.004;2023-05-14T04:47:00;11.23;;;10.33;;
10432;SDS011;5263;48.680;9.004;2023-05-14T04:49:26;10.63;;;9.53;;
10432;SDS011;5263;48.680;9.004;2023-05-14T04:51:52;10.83;;;9.73;;
10432;SDS011;5263;48.680;9.004;2023-05-14T04:54:18;12.13;;;10.93;;
10432;SDS011;5263;48.680;9.004;2023-05-14T04:56:44;11.57;;;10.57;;
10432;SDS011;5263;48.680;9.004;2023-05-14T04:59:09;12.27;;;10.80;;
10432;SDS011;5263;48.680;9.004;2023-05-14T05:01:35;11.57;;;10.57;;
10432;SDS011;5263;48.680;9.004;2023-05-14T05:04:00;10.97;;;10.07;;
10432;SDS011;5263;48.680;9.004;2023-05-14T05:06:26;12.10;;;11.00;;
10432;SDS011;5263;48.680;9.004;2023-05-14T05:08:52;11.07;;;10.23;;
10432;SDS011;5263;48.680;9.004;2023-05-14T05:11:17;12.43;;;11.43;;
10432;SDS011;5263;48.680;9.004;2023-05-14T05:13:43;12.60;;;11.30;;
10432;SDS011;5263;48.680;9.004;2023-05-14T05:16:08;11.97;;;10.87;;
10432;SDS011;5263;48.680;9.004;2023-05-14T05:18:34;11.57;;;10.63;;
10432;SDS011;5263;48.680;9.004;2023-05-14T05:21:00;12.40;;;11.40;;
10432;SDS011;5263;48.680;9.004;2023-05-14T05:23:25;12.63;;;11.53;;
10432;SDS011;5263;48.680;9.004;2023-05-14T05:25:51;11.27;;;10.27;;
10432;SDS011;5263;48.680;9.004;2023-05-14T05:28:16;11.23;;;10.33;;
10432;SDS011;5263;48.680;9.004;2023-05-14T05:30:42;12.53;;;10.17;;
10432;SDS011;5263;48.680;9.004;2023-05-14T05:33:09;11.90;;;10.90;;
10432;SDS011;5263;48.680;9.004;2023-05-14T05:35:35;12.23;;;11.10;;
10432;SDS011;5263;48.680;9.004;2023-05-14T05:38:01;12.73;;;11.73;;
10432;SDS011;5263;48.680;9.004;2023-05-14T05:40:27;11.53;;;10.53;;
10432;SDS011;5263;48.680;9.004;2023-05-14T05:42:53;13.37;;;12.07;;
10432;SDS011;5263;48.680;9.004;2023-05-14T05:45:18;11.70;;;10.70;;
10432;SDS011;5263;48.680;9.004;2023-05-14T05:47:44;12.20;;;11.10;;
10432;SDS011;5263;48.680;9.004;2023-05-14T05:50:10;13.10;;;12.00;;
10432;SDS011;5263;48.680;9.004;2023-05-14T05:52:36;10.83;;;9.93;;
10432;SDS011;5263;48.680;9.004;2023-05-14T05:55:02;10.17;;;9.30;;
10432;SDS011;5263;48.680;9.004;2023-05-14T05:57:27;10.70;;;9.90;;
10432;SDS011;5263;48.680;9.004;2023-05-14T05:59:53;9.37;;;8.67;;
10432;SDS011;5263;48.680;9.004;2023-05-14T06:02:19;9.77;;;9.07;;
10432;SDS011;5263;48.680;9.004;2023-05-14T06:04:45;9.93;;;9.10;;
10432;SDS011;5263;48.680;9.004;2023-05-14T06:07:10;10.47;;;9.57;;
10432;SDS011;5263;48.680;9.004;2023-05-14T06:09:36;11.17;;;10.17;;
10432;SDS011;5263;48.680;9.004;2023-05-14T06:12:02;11.20;;;10.17;;
10432;SDS011;5263;48.680;9.004;2023-05-14T06:14:27;11.13;;;10.13;;
10432;SDS011;5263;48.680;9.004;2023-05-14T06:16:53;11.00;;;9.90;;
10432;SDS011;5263;48.680;9.004;2023-05-14T06:19:18;10.73;;;9.83;;
10432;SDS011;5263;48.680;9.004;2023-05-14T06:21:44;12.47;;;10.67;;
10432;SDS011;5263;48.680;9.004;2023-05-14T06:24:10;11.90;;;10.90;;
10432;SDS011;5263;48.680;9.004;2023-05-14T06:26:37;11.13;;;10.23;;
10432;SDS011;5263;48.680;9.004;2023-05-14T06:29:02;11.00;;;10.10;;
10432;SDS011;5263;48.680;9.004;2023-05-14T06:31:28;10.67;;;9.70;;
10432;SDS011;5263;48.680;9.004;2023-05-14T06:33:54;11.47;;;10.47;;
10432;SDS011;5263;48.680;9.004;2023-05-14T06:36:19;12.40;;;11.40;;
10432;SDS011;5263;48.680;9.004;2023-05-14T06:38:45;12.80;;;11.30;;
10432;SDS011;5263;48.680;9.004;2023-05-14T06:41:10;12.20;;;11.10;;
10432;SDS011;5263;48.680;9.004;2023-05-14T06:43:36;12.73;;;11.63;;
10432;SDS011;5263;48.680;9.004;2023-05-14T06:46:01;11.70;;;9.90;;
10432;SDS011;5263;48.680;9.004;2023-05-14T06:48:27;10.53;;;9.73;;
10432;SDS011;5263;48.680;9.004;2023-05-14T06:50:53;9.93;;;9.13;;
10432;SDS011;5263;48.680;9.004;2023-05-14T06:53:19;10.67;;;9.77;;
10432;SDS011;5263;48.680;9.004;2023-05-14T06:55:48;9.53;;;8.57;;
10432;SDS011;5263;48.680;9.004;2023-05-14T06:58:14;10.57;;;9.63;;
10432;SDS011;5263;48.680;9.004;2023-05-14T07:00:39;9.30;;;8.50;;
10432;SDS011;5263;48.680;9.004;2023-05-14T07:03:05;10.70;;;9.77;;
10432;SDS011;5263;48.680;9.004;2023-05-14T07:05:30;11.60;;;10.40;;
10432;SDS011;5263;48.680;9.004;2023-05-14T07:07:56;11.10;;;10.17;;
10432;SDS011;5263;48.680;9.004;2023-05-14T07:10:22;10.33;;;9.50;;
10432;SDS011;5263;48.680;9.004;2023-05-14T07:12:48;9.73;;;8.73;;
10432;SDS011;5263;48.680;9.004;2023-05-14T07:15:13;9.77;;;8.87;;
10432;SDS011;5263;48.680;9.004;2023-05-14T07:17:39;9.23;;;8.53;;
10432;SDS011;5263;48.680;9.004;2023-05-14T07:20:05;8.93;;;8.23;;
10432;SDS011;5263;48.680;9.004;2023-05-14T07:22:31;9.53;;;8.63;;
10432;SDS011;5263;48.680;9.004;2023-05-14T07:24:57;10.00;;;9.20;;
10432;SDS011;5263;48.680;9.004;2023-05-14T07:27:22;9.43;;;8.53;;
10432;SDS011;5263;48.680;9.004;2023-05-14T07:29:48;9.70;;;8.70;;
10432;SDS011;5263;48.680;9.004;2023-05-14T07:32:14;10.00;;;8.70;;
10432;SDS011;5263;48.680;9.004;2023-05-14T07:34:40;9.07;;;8.37;;
10432;SDS011;5263;48.680;9.004;2023-05-14T07:37:06;8.77;;;8.07;;
10432;SDS011;5263;48.680;9.004;2023-05-14T07:39:31;10.10;;;9.17;;
10432;SDS011;5263;48.680;9.004;2023-05-14T07:41:59;10.07;;;9.27;;
10432;SDS011;5263;48.680;9.004;2023-05-14T07:44:25;8.27;;;7.47;;
10432;SDS011;5263;48.680;9.004;2023-05-14T07:46:50;7.93;;;7.33;;
10432;SDS011;5263;48.680;9.004;2023-05-14T07:49:16;9.20;;;8.40;;
10432;SDS011;5263;48.680;9.004;2023-05-14T07:51:42;9.53;;;8.07;;
10432;SDS011;5263;48.680;9.004;2023-05-14T07:54:07;8.67;;;7.97;;
10432;SDS011;5263;48.680;9.004;2023-05-14T07:56:33;8.20;;;7.60;;
10432;SDS011;5263;48.680;9.004;2023-05-14T07:58:59;8.80;;;8.03;;
10432;SDS011;5263;48.680;9.004;2023-05-14T08:01:24;9.47;;;8.53;;
10432;SDS011;5263;48.680;9.004;2023-05-14T08:03:50;8.47;;;7.80;;
10432;SDS011;5263;48.680;9.004;2023-05-14T08:06:16;8.70;;;8.10;;
10432;SDS011;5263;48.680;9.004;2023-05-14T08:08:41;8.77;;;8.07;;
10432;SDS011;5263;48.680;9.004;2023-05-14T08:11:07;7.17;;;6.60;;
10432;SDS011;5263;48.680;9.004;2023-05-14T08:13:32;7.60;;;7.00;;
10432;SDS011;5263;48.680;9.004;2023-05-14T08:15:58;9.07;;;8.00;;
10432;SDS011;5263;48.680;9.004;2023-05-14T08:18:24;7.33;;;6.73;;
10432;SDS011;5263;48.680;9.004;2023-05-14T08:20:50;7.73;;;7.13;;
10432;SDS011;5263;48.680;9.004;2023-05-14T08:23:16;7.07;;;6.50;;
10432;SDS011;5263;48.680;9.004;2023-05-14T08:25:41;8.13;;;7.33;;
10432;SDS011;5263;48.680;9.004;2023-05-14T08:28:07;8.00;;;7.20;;
10432;SDS011;5263;48.680;9.004;2023-05-14T08:30:33;7.27;;;6.67;;
10432;SDS011;5263;48.680;9.004;2023-05-14T08:32:58;8.27;;;7.67;;
10432;SDS011;5263;48.680;9.004;2023-05-14T08:35:24;7.77;;;7.17;;
10432;SDS011;5263;48.680;9.004;2023-05-14T08:37:50;8.40;;;7.43;;
10432;SDS011;5263;48.680;9.004;2023-05-14T08:40:16;8.43;;;7.73;;
10432;SDS011;5263;48.680;9.004;2023-05-14T08:42:42;7.80;;;7.20;;
10432;SDS011;5263;48.680;9.004;2023-05-14T08:47:42;8.00;;;7.40;;
10432;SDS011;5263;48.680;9.004;2023-05-14T08:50:12;8.33;;;7.63;;
10432;SDS011;5263;48.680;9.004;2023-05-14T08:52:38;7.13;;;6.60;;
10432;SDS011;5263;48.680;9.004;2023-05-14T08:55:04;7.50;;;6.83;;
10432;SDS011;5263;48.680;9.004;2023-05-14T08:57:31;7.80;;;7.20;;
10432;SDS011;5263;48.680;9.004;2023-05-14T08:59:58;6.77;;;6.17;;
10432;SDS011;5263;48.680;9.004;2023-05-14T09:02:29;7.17;;;6.70;;
10432;SDS011;5263;48.680;9.004;2023-05-14T09:04:58;7.97;;;7.23;;
10432;SDS011;5263;48.680;9.004;2023-05-14T09:07:25;7.40;;;6.83;;
10432;SDS011;5263;48.680;9.004;2023-05-14T09:09:51;6.97;;;6.27;;
10432;SDS011;5263;48.680;9.004;2023-05-14T09:12:17;9.47;;;6.17;;
10432;SDS011;5263;48.680;9.004;2023-05-14T09:14:44;7.17;;;6.60;;
10432;SDS011;5263;48.680;9.004;2023-05-14T09:17:11;7.73;;;6.83;;
10432;SDS011;5263;48.680;9.004;2023-05-14T09:19:40;7.10;;;6.50;;
10432;SDS011;5263;48.680;9.004;2023-05-14T09:22:13;6.90;;;6.40;;
10432;SDS011;5263;48.680;9.004;2023-05-14T09:24:39;7.20;;;6.70;;
10432;SDS011;5263;48.680;9.004;2023-05-14T09:27:05;8.13;;;7.40;;
10432;SDS011;5263;48.680;9.004;2023-05-14T09:29:32;8.43;;;7.70;;
10432;SDS011;5263;48.680;9.004;2023-05-14T09:31:58;7.60;;;6.97;;
10432;SDS011;5263;48.680;9.004;2023-05-14T09:34:32;7.63;;;6.77;;
10432;SDS011;5263;48.680;9.004;2023-05-14T09:36:59;7.20;;;6.50;;
10432;SDS011;5263;48.680;9.004;2023-05-14T09:39:26;6.70;;;6.00;;
10432;SDS011;5263;48.680;9.004;2023-05-14T09:41:52;7.67;;;6.90;;
10432;SDS011;5263;48.680;9.004;2023-05-14T09:44:19;8.00;;;7.30;;
10432;SDS011;5263;48.680;9.004;2023-05-14T09:46:45;7.57;;;6.93;;
10432;SDS011;5263;48.680;9.004;2023-05-14T09:49:11;6.53;;;5.93;;
10432;SDS011;5263;48.680;9.004;2023-05-14T09:51:37;6.70;;;6.13;;
10432;SDS011;5263;48.680;9.004;2023-05-14T09:54:03;7.67;;;7.03;;
10432;SDS011;5263;48.680;9.004;2023-05-14T09:56:30;8.00;;;7.40;;
10432;SDS011;5263;48.680;9.004;2023-05-14T09:58:58;6.63;;;6.03;;
10432;SDS011;5263;48.680;9.004;2023-05-14T10:01:24;7.17;;;6.53;;
10432;SDS011;5263;48.680;9.004;2023-05-14T10:03:52;8.33;;;6.23;;
10432;SDS011;5263;48.680;9.004;2023-05-14T10:06:20;6.30;;;5.70;;
10432;SDS011;5263;48.680;9.004;2023-05-14T10:08:48;6.13;;;5.53;;
10432;SDS011;5263;48.680;9.004;2023-05-14T10:11:18;6.43;;;5.90;;
10432;SDS011;5263;48.680;9.004;2023-05-14T10:13:48;6.83;;;6.27;;
10432;SDS011;5263;48.680;9.004;2023-05-14T10:16:27;6.13;;;5.63;;
10432;SDS011;5263;48.680;9.004;2023-05-14T10:19:08;5.80;;;5.40;;
10432;SDS011;5263;48.680;9.004;2023-05-14T10:21:36;5.33;;;4.93;;
10432;SDS011;5263;48.680;9.004;2023-05-14T10:24:04;4.70;;;4.40;;
10432;SDS011;5263;48.680;9.004;2023-05-14T10:26:33;4.63;;;4.23;;
10432;SDS011;5263;48.680;9.004;2023-05-14T10:29:04;4.33;;;3.83;;
10432;SDS011;5263;48.680;9.004;2023-05-14T10:31:50;3.70;;;3.40;;
10432;SDS011;5263;48.680;9.004;2023-05-14T10:34:36;3.47;;;3.17;;
10432;SDS011;5263;48.680;9.004;2023-05-14T10:37:08;2.63;;;2.53;;
10432;SDS011;5263;48.680;9.004;2023-05-14T10:39:51;2.83;;;2.63;;
10432;SDS011;5263;48.680;9.004;2023-05-14T10:42:27;1.70;;;1.60;;
10432;SDS011;5263;48.680;9.004;2023-05-14T10:44:57;1.90;;;1.80;;
10432;SDS011;5263;48.680;9.004;2023-05-14T10:47:25;2.57;;;1.97;;
10432;SDS011;5263;48.680;9.004;2023-05-14T10:49:56;1.90;;;1.80;;
10432;SDS011;5263;48.680;9.004;2023-05-14T10:52:24;3.57;;;2.40;;
10432;SDS011;5263;48.680;9.004;2023-05-14T10:54:57;2.10;;;2.00;;
10432;SDS011;5263;48.680;9.004;2023-05-14T10:57:25;3.33;;;2.57;;
10432;SDS011;5263;48.680;9.004;2023-05-14T10:59:53;3.37;;;2.10;;
10432;SDS011;5263;48.680;9.004;2023-05-14T11:04:53;4.47;;;4.13;;
10432;SDS011;5263;48.680;9.004;2023-05-14T11:07:23;5.27;;;4.17;;
10432;SDS011;5263;48.680;9.004;2023-05-14T11:09:51;3.30;;;3.10;;
10432;SDS011;5263;48.680;9.004;2023-05-14T11:12:20;3.90;;;3.70;;
10432;SDS011;5263;48.680;9.004;2023-05-14T11:14:46;3.83;;;3.63;;
10432;SDS011;5263;48.680;9.004;2023-05-14T11:17:12;4.70;;;4.40;;
10432;SDS011;5263;48.680;9.004;2023-05-14T11:19:38;3.40;;;3.20;;
10432;SDS011;5263;48.680;9.004;2023-05-14T11:22:07;4.57;;;3.90;;
10432;SDS011;5263;48.680;9.004;2023-05-14T11:24:33;2.93;;;2.83;;
10432;SDS011;5263;48.680;9.004;2023-05-14T11:26:58;4.17;;;3.80;;
10432;SDS011;5263;48.680;9.004;2023-05-14T11:29:24;3.50;;;3.30;;
10432;SDS011;5263;48.680;9.004;2023-05-14T11:31:49;3.13;;;3.03;;
10432;SDS011;5263;48.680;9.004;2023-05-14T11:34:15;3.17;;;2.97;;
10432;SDS011;5263;48.680;9.004;2023-05-14T11:36:41;3.10;;;2.83;;
10432;SDS011;5263;48.680;9.004;2023-05-14T11:39:06;2.93;;;2.83;;
10432;SDS011;5263;48.680;9.004;2023-05-14T11:41:32;3.97;;;3.57;;
10432;SDS011;5263;48.680;9.004;2023-05-14T11:43:58;2.53;;;2.43;;
10432;SDS011;5263;48.680;9.004;2023-05-14T11:46:23;3.27;;;2.97;;
10432;SDS011;5263;48.680;9.004;2023-05-14T11:48:50;2.67;;;2.47;;
10432;SDS011;5263;48.680;9.004;2023-05-14T11:51:15;2.90;;;2.60;;
10432;SDS011;5263;48.680;9.004;2023-05-14T11:53:41;2.90;;;2.70;;
10432;SDS011;5263;48.680;9.004;2023-05-14T11:56:06;2.40;;;2.30;;
10432;SDS011;5263;48.680;9.004;2023-05-14T11:58:32;3.00;;;2.80;;
10432;SDS011;5263;48.680;9.004;2023-05-14T12:00:58;4.80;;;3.07;;
10432;SDS011;5263;48.680;9.004;2023-05-14T12:03:23;3.20;;;3.00;;
10432;SDS011;5263;48.680;9.004;2023-05-14T12:05:54;3.50;;;3.27;;
10432;SDS011;5263;48.680;9.004;2023-05-14T12:08:29;4.40;;;4.10;;
10432;SDS011;5263;48.680;9.004;2023-05-14T12:10:57;5.13;;;4.83;;
10432;SDS011;5263;48.680;9.004;2023-05-14T12:13:31;5.20;;;4.90;;
10432;SDS011;5263;48.680;9.004;2023-05-14T12:15:58;4.90;;;4.50;;
10432;SDS011;5263;48.680;9.004;2023-05-14T12:18:24;4.30;;;4.00;;
10432;SDS011;5263;48.680;9.004;2023-05-14T12:20:53;4.13;;;3.83;;
10432;SDS011;5263;48.680;9.004;2023-05-14T12:23:29;4.67;;;4.40;;
10432;SDS011;5263;48.680;9.004;2023-05-14T12:26:02;3.83;;;3.63;;
10432;SDS011;5263;48.680;9.004;2023-05-14T12:28:30;3.20;;;3.00;;
10432;SDS011;5263;48.680;9.004;2023-05-14T12:30:56;3.17;;;2.97;;
10432;SDS011;5263;48.680;9.004;2023-05-14T12:33:23;3.60;;;3.30;;
10432;SDS011;5263;48.680;9.004;2023-05-14T12:35:50;3.23;;;3.03;;
10432;SDS011;5263;48.680;9.004;2023-05-14T12:38:17;3.93;;;3.63;;
10432;SDS011;5263;48.680;9.004;2023-05-14T12:40:43;3.97;;;3.37;;
10432;SDS011;5263;48.680;9.004;2023-05-14T12:43:09;5.03;;;3.83;;
10432;SDS011;5263;48.680;9.004;2023-05-14T12:45:34;3.90;;;3.70;;
10432;SDS011;5263;48.680;9.004;2023-05-14T12:48:00;4.90;;;4.40;;
10432;SDS011;5263;48.680;9.004;2023-05-14T12:50:25;4.70;;;4.30;;
10432;SDS011;5263;48.680;9.004;2023-05-14T12:52:51;3.97;;;3.53;;
10432;SDS011;5263;48.680;9.004;2023-05-14T12:55:17;3.83;;;3.30;;
10432;SDS011;5263;48.680;9.004;2023-05-14T12:57:42;3.53;;;3.23;;
10432;SDS011;5263;48.680;9.004;2023-05-14T13:00:08;3.70;;;3.33;;
10432;SDS011;5263;48.680;9.004;2023-05-14T13:02:35;4.03;;;3.70;;
10432;SDS011;5263;48.680;9.004;2023-05-14T13:05:01;4.17;;;3.67;;
10432;SDS011;5263;48.680;9.004;2023-05-14T13:07:27;4.07;;;3.43;;
10432;SDS011;5263;48.680;9.004;2023-05-14T13:09:56;3.97;;;3.77;;
10432;SDS011;5263;48.680;9.004;2023-05-14T13:12:22;3.93;;;2.70;;
10432;SDS011;5263;48.680;9.004;2023-05-14T13:14:48;4.03;;;3.77;;
10432;SDS011;5263;48.680;9.004;2023-05-14T13:17:14;3.93;;;3.53;;
10432;SDS011;5263;48.680;9.004;2023-05-14T13:19:39;3.40;;;3.20;;
10432;SDS011;5263;48.680;9.004;2023-05-14T13:22:05;3.60;;;2.83;;
10432;SDS011;5263;48.680;9.004;2023-05-14T13:24:31;6.93;;;4.23;;
10432;SDS011;5263;48.680;9.004;2023-05-14T13:26:56;4.17;;;3.87;;
10432;SDS011;5263;48.680;9.004;2023-05-14T13:29:22;4.13;;;3.93;;
10432;SDS011;5263;48.680;9.004;2023-05-14T13:31:47;3.30;;;3.00;;
10432;SDS011;5263;48.680;9.004;2023-05-14T13:34:13;3.60;;;3.30;;
10432;SDS011;5263;48.680;9.004;2023-05-14T13:36:40;4.93;;;3.67;;
10432;SDS011;5263;48.680;9.004;2023-05-14T13:39:07;2.80;;;2.63;;
10432;SDS011;5263;48.680;9.004;2023-05-14T13:41:34;4.40;;;3.53;;
10432;SDS011;5263;48.680;9.004;2023-05-14T13:44:01;3.37;;;3.17;;
10432;SDS011;5263;48.680;9.004;2023-05-14T13:46:27;3.97;;;3.57;;
10432;SDS011;5263;48.680;9.004;2023-05-14T13:48:53;3.20;;;2.83;;
10432;SDS011;5263;48.680;9.004;2023-05-14T13:51:19;3.00;;;2.77;;
10432;SDS011;5263;48.680;9.004;2023-05-14T13:53:44;2.83;;;2.63;;
10432;SDS011;5263;48.680;9.004;2023-05-14T13:56:10;3.67;;;2.93;;
10432;SDS011;5263;48.680;9.004;2023-05-14T13:58:35;3.03;;;2.83;;
10432;SDS011;5263;48.680;9.004;2023-05-14T14:01:01;2.13;;;1.97;;
10432;SDS011;5263;48.680;9.004;2023-05-14T14:03:27;2.63;;;2.43;;
10432;SDS011;5263;48.680;9.004;2023-05-14T14:05:52;2.67;;;2.47;;
10432;SDS011;5263;48.680;9.004;2023-05-14T14:08:18;4.73;;;2.40;;
10432;SDS011;5263;48.680;9.004;2023-05-14T14:10:44;2.53;;;2.33;;
10432;SDS011;5263;48.680;9.004;2023-05-14T14:13:09;1.90;;;1.80;;
10432;SDS011;5263;48.680;9.004;2023-05-14T14:15:35;2.30;;;2.10;;
10432;SDS011;5263;48.680;9.004;2023-05-14T14:18:01;4.10;;;1.23;;
10432;SDS011;5263;48.680;9.004;2023-05-14T14:20:27;2.40;;;2.27;;
10432;SDS011;5263;48.680;9.004;2023-05-14T14:22:53;2.90;;;2.17;;
10432;SDS011;5263;48.680;9.004;2023-05-14T14:25:18;2.00;;;1.90;;
10432;SDS011;5263;48.680;9.004;2023-05-14T14:27:44;2.80;;;2.60;;
10432;SDS011;5263;48.680;9.004;2023-05-14T14:30:10;2.30;;;2.10;;
10432;SDS011;5263;48.680;9.004;2023-05-14T14:32:40;2.23;;;2.03;;
10432;SDS011;5263;48.680;9.004;2023-05-14T14:35:13;3.83;;;2.37;;
10432;SDS011;5263;48.680;9.004;2023-05-14T14:37:40;2.93;;;1.93;;
10432;SDS011;5263;48.680;9.004;2023-05-14T14:40:09;2.40;;;2.30;;
10432;SDS011;5263;48.680;9.004;2023-05-14T14:42:35;2.13;;;2.03;;
10432;SDS011;5263;48.680;9.004;2023-05-14T14:45:02;1.53;;;1.53;;
10432;SDS011;5263;48.680;9.004;2023-05-14T14:47:28;2.03;;;1.93;;
10432;SDS011;5263;48.680;9.004;2023-05-14T14:49:54;1.80;;;1.70;;
10432;SDS011;5263;48.680;9.004;2023-05-14T14:52:21;2.10;;;1.90;;
10432;SDS011;5263;48.680;9.004;2023-05-14T14:54:47;1.77;;;1.67;;
10432;SDS011;5263;48.680;9.004;2023-05-14T14:57:13;3.53;;;1.57;;
10432;SDS011;5263;48.680;9.004;2023-05-14T14:59:38;2.30;;;1.53;;